Time,TemperatureF,DewpointF,PressureIn,WindDirection,WindDirectionDegrees,WindSpeedMPH,WindSpeedGustMPH,Humidity,HourlyPrecipIn,Conditions,Clouds,dailyrainin,SolarRadiationWatts/m^2,SoftwareType,DateUTC
2013-09-16 00:06:00,53.2,52.0,30.09,West,263,0.0,1.0,96,0.00,,,0.00,0,weatherlink.com 1.10,2013-09-16 04:06:00,
2013-09-16 00:21:00,53.3,52.0,30.09,West,263,0.0,0.0,96,0.00,,,0.00,0,weatherlink.com 1.10,2013-09-16 04:21:00,
2013-09-16 00:36:00,53.3,52.0,30.08,West,263,0.0,0.0,96,0.00,,,0.00,0,weatherlink.com 1.10,2013-09-16 04:36:00,
2013-09-16 00:51:00,53.3,52.0,30.08,West,263,0.0,3.0,96,0.00,,,0.00,0,weatherlink.com 1.10,2013-09-16 04:51:00,
2013-09-16 01:06:00,53.2,52.0,30.07,West,263,0.0,0.0,96,0.00,,,0.00,0,weatherlink.com 1.10,2013-09-16 05:06:00,
2013-09-16 01:23:00,53.1,52.0,30.07,West,264,2.0,2.0,96,0.00,,,0.00,0,weatherlink.com 1.10,2013-09-16 05:23:00,
2013-09-16 01:36:00,53.1,52.0,30.07,West,267,0.0,0.0,96,0.00,,,0.00,0,weatherlink.com 1.10,2013-09-16 05:36:00,
2013-09-16 01:51:00,53.1,52.0,30.08,West,267,0.0,0.0,96,0.00,,,0.00,0,weatherlink.com 1.10,2013-09-16 05:51:00,
2013-09-16 02:06:00,53.2,52.0,30.08,West,267,0.0,0.0,96,0.00,,,0.00,0,weatherlink.com 1.10,2013-09-16 06:06:00,
2013-09-16 02:21:00,53.2,52.0,30.07,West,267,0.0,3.0,96,0.00,,,0.00,0,weatherlink.com 1.10,2013-09-16 06:21:00,
2013-09-16 02:36:00,53.2,52.0,30.07,West,267,0.0,3.0,96,0.00,,,0.00,0,weatherlink.com 1.10,2013-09-16 06:36:00,
2013-09-16 02:51:00,53.3,52.0,30.06,West,267,0.0,2.0,96,0.00,,,0.00,0,weatherlink.com 1.10,2013-09-16 06:51:00,
2013-09-16 03:06:00,53.3,52.0,30.07,West,267,2.0,3.0,96,0.00,,,0.00,0,weatherlink.com 1.10,2013-09-16 07:06:00,
2013-09-16 03:21:00,53.1,52.0,30.07,West,265,1.0,4.0,96,0.00,,,0.00,0,weatherlink.com 1.10,2013-09-16 07:21:00,
2013-09-16 03:36:00,53.3,53.0,30.06,West,265,0.0,0.0,97,0.00,,,0.00,0,weatherlink.com 1.10,2013-09-16 07:36:00,
2013-09-16 03:51:00,53.5,53.0,30.05,West,265,0.0,0.0,97,0.00,,,0.00,0,weatherlink.com 1.10,2013-09-16 07:51:00,
2013-09-16 04:06:00,53.6,53.0,30.05,West,266,0.0,0.0,97,0.00,,,0.00,0,weatherlink.com 1.10,2013-09-16 08:06:00,
2013-09-16 04:21:00,53.6,53.0,30.05,West,265,0.0,3.0,97,0.00,,,0.00,0,weatherlink.com 1.10,2013-09-16 08:21:00,
2013-09-16 04:36:00,53.5,53.0,30.06,West,266,0.0,3.0,97,0.00,,,0.00,0,weatherlink.com 1.10,2013-09-16 08:36:00,
2013-09-16 04:51:00,53.5,53.0,30.07,WSW,248,0.0,0.0,97,0.00,,,0.00,0,weatherlink.com 1.10,2013-09-16 08:51:00,
2013-09-16 05:06:00,53.5,53.0,30.07,WSW,248,0.0,0.0,97,0.00,,,0.00,0,weatherlink.com 1.10,2013-09-16 09:06:00,
2013-09-16 05:21:00,53.5,53.0,30.08,WSW,248,0.0,0.0,97,0.00,,,0.00,0,weatherlink.com 1.10,2013-09-16 09:21:00,
2013-09-16 05:36:00,53.5,53.0,30.08,WSW,248,0.0,0.0,97,0.00,,,0.00,0,weatherlink.com 1.10,2013-09-16 09:36:00,
2013-09-16 05:51:00,53.3,53.0,30.07,North,355,0.0,5.0,97,0.00,,,0.00,0,weatherlink.com 1.10,2013-09-16 09:51:00,
2013-09-16 06:06:00,53.4,53.0,30.07,North,355,0.0,0.0,97,0.00,,,0.00,0,weatherlink.com 1.10,2013-09-16 10:06:00,
2013-09-16 06:22:00,53.4,53.0,30.07,North,355,0.0,0.0,97,0.00,,,0.00,0,weatherlink.com 1.10,2013-09-16 10:22:00,
2013-09-16 06:37:00,53.3,53.0,30.08,North,355,0.0,0.0,97,0.00,,,0.00,0,weatherlink.com 1.10,2013-09-16 10:37:00,
2013-09-16 06:52:00,53.3,53.0,30.08,North,349,0.0,0.0,97,0.00,,,0.00,11,weatherlink.com 1.10,2013-09-16 10:52:00,
2013-09-16 07:07:00,53.5,53.0,30.08,NNW,348,0.0,0.0,97,0.00,,,0.00,11,weatherlink.com 1.10,2013-09-16 11:07:00,
2013-09-16 07:22:00,53.6,53.0,30.08,NNW,336,0.0,2.0,97,0.00,,,0.00,12,weatherlink.com 1.10,2013-09-16 11:22:00,
2013-09-16 07:37:00,53.7,53.0,30.09,NNW,336,0.0,0.0,97,0.00,,,0.00,23,weatherlink.com 1.10,2013-09-16 11:37:00,
2013-09-16 07:52:00,53.8,53.0,30.09,NNW,336,0.0,0.0,97,0.01,,,0.01,18,weatherlink.com 1.10,2013-09-16 11:52:00,
2013-09-16 08:07:00,53.8,53.0,30.09,NNW,336,0.0,2.0,97,0.01,,,0.01,46,weatherlink.com 1.10,2013-09-16 12:07:00,
2013-09-16 08:22:00,54.1,53.0,30.08,NNW,336,0.0,0.0,97,0.01,,,0.01,63,weatherlink.com 1.10,2013-09-16 12:22:00,
2013-09-16 08:39:00,54.7,54.0,30.08,West,268,0.0,4.0,97,0.01,,,0.01,120,weatherlink.com 1.10,2013-09-16 12:39:00,
2013-09-16 08:52:00,55.3,55.0,30.08,WSW,253,0.0,5.0,97,0.00,,,0.01,172,weatherlink.com 1.10,2013-09-16 12:52:00,
2013-09-16 09:07:00,56.0,55.0,30.07,SW,234,0.0,2.0,97,0.00,,,0.01,239,weatherlink.com 1.10,2013-09-16 13:07:00,
2013-09-16 09:22:00,56.8,56.0,30.08,SW,229,0.0,4.0,97,0.00,,,0.01,120,weatherlink.com 1.10,2013-09-16 13:22:00,
2013-09-16 09:37:00,57.6,57.0,30.08,NNE,27,2.0,4.0,97,0.00,,,0.01,251,weatherlink.com 1.10,2013-09-16 13:37:00,
2013-09-16 09:52:00,58.4,57.0,30.09,NE,44,3.0,4.0,96,0.00,,,0.01,265,weatherlink.com 1.10,2013-09-16 13:52:00,
2013-09-16 10:07:00,60.2,57.0,30.08,NE,44,0.0,1.0,90,0.00,,,0.01,237,weatherlink.com 1.10,2013-09-16 14:07:00,
2013-09-16 10:22:00,62.4,57.0,30.08,East,83,0.0,4.0,83,0.00,,,0.01,243,weatherlink.com 1.10,2013-09-16 14:22:00,
2013-09-16 10:37:00,63.3,56.0,30.08,NE,42,1.0,8.0,78,0.00,,,0.01,724,weatherlink.com 1.10,2013-09-16 14:37:00,
2013-09-16 10:52:00,64.6,57.0,30.08,NNW,331,1.0,12.0,76,0.00,,,0.01,738,weatherlink.com 1.10,2013-09-16 14:52:00,
2013-09-16 11:07:00,65.9,55.0,30.09,NE,34,6.0,12.0,68,0.00,,,0.01,916,weatherlink.com 1.10,2013-09-16 15:07:00,
2013-09-16 11:22:00,66.0,53.0,30.08,NE,39,4.0,13.0,64,0.00,,,0.01,295,weatherlink.com 1.10,2013-09-16 15:22:00,
2013-09-16 11:37:00,65.3,54.0,30.08,NE,38,11.0,12.0,66,0.00,,,0.01,846,weatherlink.com 1.10,2013-09-16 15:37:00,
2013-09-16 11:52:00,67.1,56.0,30.08,North,9,2.0,8.0,68,0.00,,,0.01,244,weatherlink.com 1.10,2013-09-16 15:52:00,
2013-09-16 12:07:00,66.5,54.0,30.09,NNW,344,2.0,11.0,64,0.00,,,0.01,192,weatherlink.com 1.10,2013-09-16 16:07:00,
2013-09-16 12:22:00,65.1,54.0,30.09,North,355,2.0,16.0,67,0.00,,,0.01,192,weatherlink.com 1.10,2013-09-16 16:22:00,
2013-09-16 12:37:00,63.9,53.0,30.09,NNE,17,4.0,17.0,68,0.00,,,0.01,185,weatherlink.com 1.10,2013-09-16 16:37:00,
2013-09-16 12:52:00,63.0,53.0,30.09,North,360,9.0,15.0,71,0.00,,,0.01,287,weatherlink.com 1.10,2013-09-16 16:52:00,
2013-09-16 13:07:00,63.3,54.0,30.09,North,360,4.0,12.0,72,0.00,,,0.01,220,weatherlink.com 1.10,2013-09-16 17:07:00,
2013-09-16 13:22:00,65.2,55.0,30.09,NE,40,7.0,15.0,69,0.00,,,0.01,874,weatherlink.com 1.10,2013-09-16 17:22:00,
2013-09-16 13:38:00,67.1,55.0,30.08,NNE,22,5.0,11.0,66,0.00,,,0.01,264,weatherlink.com 1.10,2013-09-16 17:38:00,
2013-09-16 13:53:00,67.8,57.0,30.08,North,360,1.0,6.0,68,0.00,,,0.01,930,weatherlink.com 1.10,2013-09-16 17:53:00,
2013-09-16 14:08:00,66.5,54.0,30.09,NNE,23,8.0,13.0,65,0.00,,,0.01,366,weatherlink.com 1.10,2013-09-16 18:08:00,
2013-09-16 14:23:00,66.8,57.0,30.09,NNW,333,4.0,13.0,70,0.00,,,0.01,761,weatherlink.com 1.10,2013-09-16 18:23:00,
2013-09-16 14:38:00,67.6,54.0,30.10,North,355,4.0,12.0,63,0.00,,,0.01,789,weatherlink.com 1.10,2013-09-16 18:38:00,
2013-09-16 14:54:00,66.9,53.0,30.11,North,350,4.0,18.0,62,0.00,,,0.01,663,weatherlink.com 1.10,2013-09-16 18:54:00,
2013-09-16 15:08:00,65.9,52.0,30.11,North,5,3.0,17.0,62,0.00,,,0.01,656,weatherlink.com 1.10,2013-09-16 19:08:00,
2013-09-16 15:23:00,64.8,52.0,30.11,NNW,327,2.0,10.0,63,0.00,,,0.01,573,weatherlink.com 1.10,2013-09-16 19:23:00,
2013-09-16 15:38:00,63.9,51.0,30.11,NNW,344,5.0,12.0,64,0.00,,,0.01,531,weatherlink.com 1.10,2013-09-16 19:38:00,
2013-09-16 15:53:00,63.9,51.0,30.11,NNW,332,3.0,10.0,64,0.00,,,0.01,496,weatherlink.com 1.10,2013-09-16 19:53:00,
2013-09-16 16:08:00,63.9,51.0,30.11,NNW,338,0.0,11.0,64,0.00,,,0.01,485,weatherlink.com 1.10,2013-09-16 20:08:00,
2013-09-16 16:23:00,62.8,51.0,30.12,NE,45,2.0,14.0,65,0.00,,,0.01,455,weatherlink.com 1.10,2013-09-16 20:23:00,
2013-09-16 16:38:00,62.1,50.0,30.12,North,355,3.0,12.0,65,0.00,,,0.01,385,weatherlink.com 1.10,2013-09-16 20:38:00,
2013-09-16 16:53:00,61.9,51.0,30.13,WSW,254,7.0,13.0,67,0.00,,,0.01,345,weatherlink.com 1.10,2013-09-16 20:53:00,
2013-09-16 17:08:00,61.6,50.0,30.14,NNW,339,3.0,8.0,66,0.00,,,0.01,77,weatherlink.com 1.10,2013-09-16 21:08:00,
2013-09-16 17:23:00,60.3,48.0,30.14,NNW,336,0.0,5.0,64,0.00,,,0.01,33,weatherlink.com 1.10,2013-09-16 21:23:00,
2013-09-16 17:38:00,58.7,46.0,30.15,ENE,59,4.0,10.0,63,0.00,,,0.01,39,weatherlink.com 1.10,2013-09-16 21:38:00,
2013-09-16 17:53:00,57.5,46.0,30.16,North,355,0.0,8.0,65,0.00,,,0.01,28,weatherlink.com 1.10,2013-09-16 21:53:00,
2013-09-16 18:08:00,56.9,46.0,30.16,North,350,0.0,2.0,68,0.00,,,0.01,23,weatherlink.com 1.10,2013-09-16 22:08:00,
2013-09-16 18:23:00,55.8,46.0,30.17,North,350,0.0,3.0,70,0.00,,,0.01,16,weatherlink.com 1.10,2013-09-16 22:23:00,
2013-09-16 18:38:00,54.7,46.0,30.18,NNW,345,0.0,1.0,72,0.00,,,0.01,12,weatherlink.com 1.10,2013-09-16 22:38:00,
2013-09-16 18:53:00,53.8,46.0,30.19,NNW,346,0.0,0.0,74,0.00,,,0.01,7,weatherlink.com 1.10,2013-09-16 22:53:00,
2013-09-16 19:08:00,52.7,45.0,30.20,NNW,345,0.0,0.0,76,0.00,,,0.01,0,weatherlink.com 1.10,2013-09-16 23:08:00,
2013-09-16 19:23:00,51.4,45.0,30.20,NNW,346,0.0,3.0,79,0.00,,,0.01,0,weatherlink.com 1.10,2013-09-16 23:23:00,
2013-09-16 19:38:00,50.5,43.0,30.22,NE,38,0.0,8.0,76,0.00,,,0.01,0,weatherlink.com 1.10,2013-09-16 23:38:00,
2013-09-16 19:53:00,49.9,42.0,30.23,NNE,15,1.0,10.0,75,0.00,,,0.01,0,weatherlink.com 1.10,2013-09-16 23:53:00,
2013-09-16 20:08:00,49.4,42.0,30.24,NNE,14,0.0,4.0,75,0.00,,,0.01,0,weatherlink.com 1.10,2013-09-17 00:08:00,
2013-09-16 20:23:00,48.7,41.0,30.25,NNE,15,2.0,5.0,74,0.00,,,0.01,0,weatherlink.com 1.10,2013-09-17 00:23:00,
2013-09-16 20:38:00,48.1,40.0,30.25,NNE,25,0.0,6.0,74,0.00,,,0.01,0,weatherlink.com 1.10,2013-09-17 00:38:00,
2013-09-16 20:53:00,47.6,40.0,30.26,NNE,26,0.0,5.0,75,0.00,,,0.01,0,weatherlink.com 1.10,2013-09-17 00:53:00,
2013-09-16 21:09:00,46.7,40.0,30.27,NNE,21,3.0,6.0,78,0.00,,,0.01,0,weatherlink.com 1.10,2013-09-17 01:09:00,
2013-09-16 21:24:00,46.0,40.0,30.27,North,11,4.0,6.0,78,0.00,,,0.01,0,weatherlink.com 1.10,2013-09-17 01:24:00,
2013-09-16 21:39:00,45.9,39.0,30.28,NNE,22,2.0,6.0,77,0.00,,,0.01,0,weatherlink.com 1.10,2013-09-17 01:39:00,
2013-09-16 21:54:00,45.6,39.0,30.28,NNE,30,0.0,6.0,77,0.00,,,0.01,0,weatherlink.com 1.10,2013-09-17 01:54:00,
2013-09-16 22:10:00,45.7,39.0,30.29,NE,41,4.0,8.0,76,0.00,,,0.01,0,weatherlink.com 1.10,2013-09-17 02:10:00,
2013-09-16 22:24:00,45.4,38.0,30.30,NNE,18,3.0,6.0,76,0.00,,,0.01,0,weatherlink.com 1.10,2013-09-17 02:24:00,
2013-09-16 22:39:00,45.1,38.0,30.30,NNE,22,8.0,8.0,77,0.00,,,0.01,0,weatherlink.com 1.10,2013-09-17 02:39:00,
2013-09-16 22:54:00,45.3,37.0,30.31,NE,42,6.0,12.0,74,0.00,,,0.01,0,weatherlink.com 1.10,2013-09-17 02:54:00,
2013-09-16 23:09:00,45.6,38.0,30.32,North,5,4.0,10.0,74,0.00,,,0.01,0,weatherlink.com 1.10,2013-09-17 03:09:00,
2013-09-16 23:24:00,45.3,38.0,30.32,NNE,19,4.0,6.0,75,0.00,,,0.01,0,weatherlink.com 1.10,2013-09-17 03:24:00,
2013-09-16 23:39:00,44.9,38.0,30.32,NNE,20,0.0,4.0,76,0.00,,,0.01,0,weatherlink.com 1.10,2013-09-17 03:39:00,
2013-09-16 23:54:00,44.4,38.0,30.33,NNE,20,0.0,0.0,77,0.00,,,0.01,0,weatherlink.com 1.10,2013-09-17 03:54:00,